sensor_id;sensor_type;location;lat;lon;timestamp;pressure;altitude;pressure_sealevel;temperature;humidity
58919;BME280;44704;50.122;19.932;2022-07-06T00:00:21;98450.34;;;16.71;91.56
58919;BME280;44704;50.122;19.932;2022-07-06T00:03:03;98450.98;;;16.70;91.68
58919;BME280;44704;50.122;19.932;2022-07-06T00:05:29;98448.91;;;16.69;91.76
58919;BME280;44704;50.122;19.932;2022-07-06T00:07:55;98453.92;;;16.66;91.80
58919;BME280;44704;50.122;19.932;2022-07-06T00:10:25;98451.25;;;16.65;91.90
58919;BME280;44704;50.122;19.932;2022-07-06T00:13:01;98456.62;;;16.66;92.29
58919;BME280;44704;50.122;19.932;2022-07-06T00:15:28;98451.66;;;16.68;92.15
58919;BME280;44704;50.122;19.932;2022-07-06T00:17:54;98445.65;;;16.70;92.21
58919;BME280;44704;50.122;19.932;2022-07-06T00:20:20;98445.59;;;16.71;91.88
58919;BME280;44704;50.122;19.932;2022-07-06T00:22:49;98447.08;;;16.71;91.84
58919;BME280;44704;50.122;19.932;2022-07-06T00:25:31;98451.92;;;16.69;91.72
58919;BME280;44704;50.122;19.932;2022-07-06T00:27:59;98453.09;;;16.67;91.63
58919;BME280;44704;50.122;19.932;2022-07-06T00:30:33;98447.98;;;16.66;91.54
58919;BME280;44704;50.122;19.932;2022-07-06T00:33:10;98445.29;;;16.67;91.70
58919;BME280;44704;50.122;19.932;2022-07-06T00:35:36;98445.77;;;16.70;91.32
58919;BME280;44704;50.122;19.932;2022-07-06T00:38:03;98441.25;;;16.72;91.15
58919;BME280;44704;50.122;19.932;2022-07-06T00:40:29;98444.50;;;16.71;91.04
58919;BME280;44704;50.122;19.932;2022-07-06T00:42:57;98438.86;;;16.69;90.82
58919;BME280;44704;50.122;19.932;2022-07-06T00:45:26;98437.72;;;16.72;91.10
58919;BME280;44704;50.122;19.932;2022-07-06T00:47:53;98437.23;;;16.77;91.36
58919;BME280;44704;50.122;19.932;2022-07-06T00:50:19;98433.63;;;16.81;91.02
58919;BME280;44704;50.122;19.932;2022-07-06T00:52:51;98437.62;;;16.79;90.51
58919;BME280;44704;50.122;19.932;2022-07-06T00:55:20;98441.77;;;16.75;90.54
58919;BME280;44704;50.122;19.932;2022-07-06T00:58:05;98439.86;;;16.66;90.56
58919;BME280;44704;50.122;19.932;2022-07-06T01:00:32;98439.11;;;16.61;90.80
58919;BME280;44704;50.122;19.932;2022-07-06T01:03:00;98434.52;;;16.60;90.80
58919;BME280;44704;50.122;19.932;2022-07-06T01:05:26;98431.39;;;16.59;91.27
58919;BME280;44704;50.122;19.932;2022-07-06T01:07:53;98429.77;;;16.61;91.25
58919;BME280;44704;50.122;19.932;2022-07-06T01:10:37;98436.14;;;16.62;91.27
58919;BME280;44704;50.122;19.932;2022-07-06T01:13:04;98440.35;;;16.66;91.42
58919;BME280;44704;50.122;19.932;2022-07-06T01:15:31;98441.95;;;16.73;91.80
58919;BME280;44704;50.122;19.932;2022-07-06T01:17:57;98439.65;;;16.80;92.04
58919;BME280;44704;50.122;19.932;2022-07-06T01:20:26;98438.19;;;16.87;91.74
58919;BME280;44704;50.122;19.932;2022-07-06T01:22:59;98436.77;;;16.95;91.79
58919;BME280;44704;50.122;19.932;2022-07-06T01:25:28;98438.95;;;17.02;91.27
58919;BME280;44704;50.122;19.932;2022-07-06T01:27:54;98441.81;;;17.09;91.33
58919;BME280;44704;50.122;19.932;2022-07-06T01:30:24;98440.34;;;17.15;90.95
58919;BME280;44704;50.122;19.932;2022-07-06T01:32:51;98437.58;;;17.21;90.96
58919;BME280;44704;50.122;19.932;2022-07-06T01:35:17;98438.02;;;17.26;90.77
58919;BME280;44704;50.122;19.932;2022-07-06T01:37:43;98445.27;;;17.29;90.19
58919;BME280;44704;50.122;19.932;2022-07-06T01:40:11;98451.47;;;17.32;90.11
58919;BME280;44704;50.122;19.932;2022-07-06T01:42:38;98451.81;;;17.36;90.18
58919;BME280;44704;50.122;19.932;2022-07-06T01:45:06;98450.33;;;17.40;89.77
58919;BME280;44704;50.122;19.932;2022-07-06T01:47:34;98448.08;;;17.41;89.36
58919;BME280;44704;50.122;19.932;2022-07-06T01:50:04;98448.03;;;17.39;89.45
58919;BME280;44704;50.122;19.932;2022-07-06T01:52:34;98451.64;;;17.41;89.51
58919;BME280;44704;50.122;19.932;2022-07-06T01:55:02;98448.07;;;17.41;89.49
58919;BME280;44704;50.122;19.932;2022-07-06T01:57:30;98448.33;;;17.43;89.36
58919;BME280;44704;50.122;19.932;2022-07-06T01:59:57;98451.52;;;17.43;89.20
58919;BME280;44704;50.122;19.932;2022-07-06T02:02:23;98455.92;;;17.43;89.15
58919;BME280;44704;50.122;19.932;2022-07-06T02:04:50;98455.70;;;17.44;88.99
58919;BME280;44704;50.122;19.932;2022-07-06T02:07:20;98455.27;;;17.43;89.27
58919;BME280;44704;50.122;19.932;2022-07-06T02:09:49;98454.49;;;17.43;89.11
58919;BME280;44704;50.122;19.932;2022-07-06T02:12:16;98450.05;;;17.40;88.76
58919;BME280;44704;50.122;19.932;2022-07-06T02:14:45;98444.20;;;17.37;88.74
58919;BME280;44704;50.122;19.932;2022-07-06T02:17:12;98440.19;;;17.31;88.41
58919;BME280;44704;50.122;19.932;2022-07-06T02:19:38;98441.34;;;17.24;88.81
58919;BME280;44704;50.122;19.932;2022-07-06T02:22:13;98440.50;;;17.20;88.72
58919;BME280;44704;50.122;19.932;2022-07-06T02:24:40;98443.93;;;17.13;88.98
58919;BME280;44704;50.122;19.932;2022-07-06T02:27:09;98442.46;;;17.10;89.30
58919;BME280;44704;50.122;19.932;2022-07-06T02:29:36;98443.11;;;17.05;89.36
58919;BME280;44704;50.122;19.932;2022-07-06T02:32:07;98447.96;;;17.04;89.87
58919;BME280;44704;50.122;19.932;2022-07-06T02:34:40;98448.11;;;17.07;90.29
58919;BME280;44704;50.122;19.932;2022-07-06T02:37:10;98446.64;;;17.10;90.21
58919;BME280;44704;50.122;19.932;2022-07-06T02:39:39;98450.98;;;17.11;90.20
58919;BME280;44704;50.122;19.932;2022-07-06T02:42:06;98449.05;;;17.13;89.95
58919;BME280;44704;50.122;19.932;2022-07-06T02:44:32;98450.80;;;17.12;90.02
58919;BME280;44704;50.122;19.932;2022-07-06T02:47:04;98450.20;;;17.11;89.95
58919;BME280;44704;50.122;19.932;2022-07-06T02:49:31;98453.50;;;17.12;90.08
58919;BME280;44704;50.122;19.932;2022-07-06T02:51:57;98453.13;;;17.12;90.14
58919;BME280;44704;50.122;19.932;2022-07-06T02:54:24;98455.73;;;17.15;90.48
58919;BME280;44704;50.122;19.932;2022-07-06T02:56:50;98455.17;;;17.17;90.12
58919;BME280;44704;50.122;19.932;2022-07-06T02:59:19;98464.73;;;17.14;89.62
58919;BME280;44704;50.122;19.932;2022-07-06T03:01:46;98468.23;;;17.08;89.86
58919;BME280;44704;50.122;19.932;2022-07-06T03:04:12;98461.84;;;17.02;89.71
58919;BME280;44704;50.122;19.932;2022-07-06T03:06:39;98457.84;;;16.94;89.69
58919;BME280;44704;50.122;19.932;2022-07-06T03:09:06;98456.23;;;16.85;89.70
58919;BME280;44704;50.122;19.932;2022-07-06T03:11:33;98462.39;;;16.77;89.73
58919;BME280;44704;50.122;19.932;2022-07-06T03:14:05;98466.95;;;16.68;89.96
58919;BME280;44704;50.122;19.932;2022-07-06T03:16:34;98460.17;;;16.61;90.40
58919;BME280;44704;50.122;19.932;2022-07-06T03:19:00;98457.43;;;16.59;90.18
58919;BME280;44704;50.122;19.932;2022-07-06T03:21:27;98458.66;;;16.56;89.98
58919;BME280;44704;50.122;19.932;2022-07-06T03:23:56;98460.92;;;16.55;90.05
58919;BME280;44704;50.122;19.932;2022-07-06T03:26:24;98466.76;;;16.55;90.03
58919;BME280;44704;50.122;19.932;2022-07-06T03:28:50;98464.27;;;16.57;90.03
58919;BME280;44704;50.122;19.932;2022-07-06T03:31:17;98465.40;;;16.60;90.37
58919;BME280;44704;50.122;19.932;2022-07-06T03:33:44;98468.97;;;16.60;89.87
58919;BME280;44704;50.122;19.932;2022-07-06T03:36:11;98468.40;;;16.56;89.88
58919;BME280;44704;50.122;19.932;2022-07-06T03:38:37;98475.05;;;16.48;90.12
58919;BME280;44704;50.122;19.932;2022-07-06T03:41:04;98482.23;;;16.42;90.47
58919;BME280;44704;50.122;19.932;2022-07-06T03:43:32;98479.39;;;16.38;90.70
58919;BME280;44704;50.122;19.932;2022-07-06T03:45:58;98485.73;;;16.35;90.73
58919;BME280;44704;50.122;19.932;2022-07-06T03:48:26;98487.98;;;16.33;90.83
58919;BME280;44704;50.122;19.932;2022-07-06T03:51:10;98492.50;;;16.32;91.07
58919;BME280;44704;50.122;19.932;2022-07-06T03:53:37;98490.20;;;16.31;91.09
58919;BME280;44704;50.122;19.932;2022-07-06T03:56:07;98490.31;;;16.29;91.17
58919;BME280;44704;50.122;19.932;2022-07-06T03:58:47;98493.50;;;16.31;90.99
58919;BME280;44704;50.122;19.932;2022-07-06T04:01:14;98493.84;;;16.29;90.74
58919;BME280;44704;50.122;19.932;2022-07-06T04:03:40;98493.79;;;16.25;90.40
58919;BME280;44704;50.122;19.932;2022-07-06T04:06:08;98491.90;;;16.19;89.91
58919;BME280;44704;50.122;19.932;2022-07-06T04:08:35;98491.29;;;16.17;90.22
58919;BME280;44704;50.122;19.932;2022-07-06T04:11:05;98487.83;;;16.20;90.39
58919;BME280;44704;50.122;19.932;2022-07-06T04:13:31;98488.86;;;16.21;90.28
58919;BME280;44704;50.122;19.932;2022-07-06T04:15:58;98488.48;;;16.22;90.28
58919;BME280;44704;50.122;19.932;2022-07-06T04:18:25;98490.95;;;16.24;89.89
58919;BME280;44704;50.122;19.932;2022-07-06T04:20:53;98492.70;;;16.23;89.82
58919;BME280;44704;50.122;19.932;2022-07-06T04:23:19;98497.27;;;16.24;89.90
58919;BME280;44704;50.122;19.932;2022-07-06T04:25:46;98498.36;;;16.24;89.92
58919;BME280;44704;50.122;19.932;2022-07-06T04:28:14;98498.13;;;16.26;89.84
58919;BME280;44704;50.122;19.932;2022-07-06T04:30:40;98500.80;;;16.30;89.76
58919;BME280;44704;50.122;19.932;2022-07-06T04:33:10;98500.58;;;16.33;89.82
58919;BME280;44704;50.122;19.932;2022-07-06T04:35:37;98504.83;;;16.38;89.87
58919;BME280;44704;50.122;19.932;2022-07-06T04:38:04;98508.84;;;16.39;89.54
58919;BME280;44704;50.122;19.932;2022-07-06T04:40:31;98513.45;;;16.42;89.30
58919;BME280;44704;50.122;19.932;2022-07-06T04:42:59;98516.25;;;16.43;89.10
58919;BME280;44704;50.122;19.932;2022-07-06T04:45:26;98521.86;;;16.43;89.53
58919;BME280;44704;50.122;19.932;2022-07-06T04:47:55;98523.98;;;16.46;89.66
58919;BME280;44704;50.122;19.932;2022-07-06T04:50:23;98525.42;;;16.45;88.87
58919;BME280;44704;50.122;19.932;2022-07-06T04:52:52;98534.29;;;16.41;88.41
58919;BME280;44704;50.122;19.932;2022-07-06T04:55:19;98530.55;;;16.42;88.54
58919;BME280;44704;50.122;19.932;2022-07-06T04:57:46;98527.89;;;16.45;88.55
58919;BME280;44704;50.122;19.932;2022-07-06T05:00:13;98536.15;;;16.53;89.02
58919;BME280;44704;50.122;19.932;2022-07-06T05:02:40;98542.36;;;16.66;89.05
58919;BME280;44704;50.122;19.932;2022-07-06T05:05:07;98551.39;;;16.75;88.49
58919;BME280;44704;50.122;19.932;2022-07-06T05:07:50;98557.41;;;16.85;88.35
58919;BME280;44704;50.122;19.932;2022-07-06T05:10:16;98557.33;;;16.89;87.28
58919;BME280;44704;50.122;19.932;2022-07-06T05:12:45;98559.52;;;16.91;86.90
58919;BME280;44704;50.122;19.932;2022-07-06T05:15:12;98553.45;;;16.95;87.33
58919;BME280;44704;50.122;19.932;2022-07-06T05:17:38;98552.33;;;16.98;86.28
58919;BME280;44704;50.122;19.932;2022-07-06T05:20:06;98548.63;;;17.01;86.31
58919;BME280;44704;50.122;19.932;2022-07-06T05:22:33;98554.24;;;17.00;85.85
58919;BME280;44704;50.122;19.932;2022-07-06T05:25:00;98558.24;;;17.03;86.29
58919;BME280;44704;50.122;19.932;2022-07-06T05:27:27;98554.66;;;17.14;87.00
58919;BME280;44704;50.122;19.932;2022-07-06T05:29:53;98560.23;;;17.34;86.54
58919;BME280;44704;50.122;19.932;2022-07-06T05:32:20;98561.38;;;17.56;86.11
58919;BME280;44704;50.122;19.932;2022-07-06T05:34:46;98560.27;;;17.70;84.50
58919;BME280;44704;50.122;19.932;2022-07-06T05:37:13;98561.91;;;17.70;83.85
58919;BME280;44704;50.122;19.932;2022-07-06T05:39:39;98563.31;;;17.68;83.54
58919;BME280;44704;50.122;19.932;2022-07-06T05:42:10;98567.19;;;17.67;83.29
58919;BME280;44704;50.122;19.932;2022-07-06T05:44:36;98568.48;;;17.64;82.96
58919;BME280;44704;50.122;19.932;2022-07-06T05:47:03;98570.00;;;17.58;82.82
58919;BME280;44704;50.122;19.932;2022-07-06T05:49:44;98563.00;;;17.46;81.89
58919;BME280;44704;50.122;19.932;2022-07-06T05:52:24;98566.70;;;17.36;82.47
58919;BME280;44704;50.122;19.932;2022-07-06T05:54:50;98566.85;;;17.31;82.73
58919;BME280;44704;50.122;19.932;2022-07-06T05:57:17;98566.75;;;17.32;83.10
58919;BME280;44704;50.122;19.932;2022-07-06T05:59:44;98571.63;;;17.35;83.44
58919;BME280;44704;50.122;19.932;2022-07-06T06:02:10;98570.41;;;17.35;82.32
58919;BME280;44704;50.122;19.932;2022-07-06T06:04:36;98571.38;;;17.33;82.46
58919;BME280;44704;50.122;19.932;2022-07-06T06:07:03;98565.93;;;17.31;82.49
58919;BME280;44704;50.122;19.932;2022-07-06T06:09:29;98568.39;;;17.34;82.81
58919;BME280;44704;50.122;19.932;2022-07-06T06:11:56;98564.11;;;17.38;82.53
58919;BME280;44704;50.122;19.932;2022-07-06T06:14:23;98563.30;;;17.42;82.17
58919;BME280;44704;50.122;19.932;2022-07-06T06:16:49;98557.73;;;17.47;82.24
58919;BME280;44704;50.122;19.932;2022-07-06T06:19:15;98555.57;;;17.52;82.50
58919;BME280;44704;50.122;19.932;2022-07-06T06:21:42;98558.39;;;17.58;82.01
58919;BME280;44704;50.122;19.932;2022-07-06T06:24:08;98558.40;;;17.64;82.33
58919;BME280;44704;50.122;19.932;2022-07-06T06:26:34;98556.17;;;17.76;82.67
58919;BME280;44704;50.122;19.932;2022-07-06T06:29:00;98551.43;;;17.93;82.26
58919;BME280;44704;50.122;19.932;2022-07-06T06:31:26;98554.78;;;18.05;81.86
58919;BME280;44704;50.122;19.932;2022-07-06T06:33:53;98559.89;;;18.05;80.49
58919;BME280;44704;50.122;19.932;2022-07-06T06:36:19;98557.48;;;18.05;80.11
58919;BME280;44704;50.122;19.932;2022-07-06T06:38:45;98559.34;;;18.12;80.51
58919;BME280;44704;50.122;19.932;2022-07-06T06:41:11;98567.00;;;18.22;79.53
58919;BME280;44704;50.122;19.932;2022-07-06T06:43:38;98572.42;;;18.19;78.29
58919;BME280;44704;50.122;19.932;2022-07-06T06:46:11;98580.38;;;18.18;78.53
58919;BME280;44704;50.122;19.932;2022-07-06T06:48:38;98581.27;;;18.27;79.43
58919;BME280;44704;50.122;19.932;2022-07-06T06:51:04;98583.82;;;18.36;78.92
58919;BME280;44704;50.122;19.932;2022-07-06T06:53:31;98584.09;;;18.37;78.33
58919;BME280;44704;50.122;19.932;2022-07-06T06:55:57;98584.89;;;18.35;78.10
58919;BME280;44704;50.122;19.932;2022-07-06T06:58:23;98579.52;;;18.32;77.62
58919;BME280;44704;50.122;19.932;2022-07-06T07:00:49;98578.73;;;18.28;76.80
58919;BME280;44704;50.122;19.932;2022-07-06T07:03:17;98573.17;;;18.26;76.85
58919;BME280;44704;50.122;19.932;2022-07-06T07:05:43;98575.16;;;18.31;77.04
58919;BME280;44704;50.122;19.932;2022-07-06T07:08:09;98573.30;;;18.35;77.04
58919;BME280;44704;50.122;19.932;2022-07-06T07:10:36;98570.81;;;18.45;77.23
58919;BME280;44704;50.122;19.932;2022-07-06T07:13:02;98571.96;;;18.64;76.78
58919;BME280;44704;50.122;19.932;2022-07-06T07:15:28;98573.95;;;18.81;76.13
58919;BME280;44704;50.122;19.932;2022-07-06T07:17:55;98580.89;;;19.01;75.95
58919;BME280;44704;50.122;19.932;2022-07-06T07:20:21;98580.73;;;19.15;73.52
58919;BME280;44704;50.122;19.932;2022-07-06T07:22:47;98576.33;;;19.29;73.97
58919;BME280;44704;50.122;19.932;2022-07-06T07:25:14;98574.99;;;19.47;73.90
58919;BME280;44704;50.122;19.932;2022-07-06T07:27:40;98577.61;;;19.71;74.11
58919;BME280;44704;50.122;19.932;2022-07-06T07:30:07;98582.45;;;19.79;73.17
58919;BME280;44704;50.122;19.932;2022-07-06T07:32:33;98584.90;;;19.75;72.47
58919;BME280;44704;50.122;19.932;2022-07-06T07:34:59;98589.50;;;19.66;71.35
58919;BME280;44704;50.122;19.932;2022-07-06T07:37:27;98587.44;;;19.60;71.85
58919;BME280;44704;50.122;19.932;2022-07-06T07:39:53;98586.70;;;19.68;72.03
58919;BME280;44704;50.122;19.932;2022-07-06T07:42:20;98589.38;;;19.79;70.76
58919;BME280;44704;50.122;19.932;2022-07-06T07:44:46;98587.95;;;19.90;70.29
58919;BME280;44704;50.122;19.932;2022-07-06T07:47:12;98589.05;;;20.03;70.49
58919;BME280;44704;50.122;19.932;2022-07-06T07:49:39;98593.11;;;20.23;69.63
58919;BME280;44704;50.122;19.932;2022-07-06T07:52:05;98593.75;;;20.39;69.47
58919;BME280;44704;50.122;19.932;2022-07-06T07:54:32;98597.37;;;20.53;68.57
58919;BME280;44704;50.122;19.932;2022-07-06T07:56:59;98598.14;;;20.57;68.28
58919;BME280;44704;50.122;19.932;2022-07-06T07:59:27;98605.45;;;20.55;68.06
58919;BME280;44704;50.122;19.932;2022-07-06T08:01:53;98605.21;;;20.45;68.96
58919;BME280;44704;50.122;19.932;2022-07-06T08:04:20;98600.55;;;20.39;69.24
58919;BME280;44704;50.122;19.932;2022-07-06T08:07:00;98606.03;;;20.54;69.74
58919;BME280;44704;50.122;19.932;2022-07-06T08:09:27;98602.26;;;20.72;66.88
58919;BME280;44704;50.122;19.932;2022-07-06T08:11:54;98600.49;;;20.85;67.05
58919;BME280;44704;50.122;19.932;2022-07-06T08:14:20;98593.14;;;20.84;66.45
58919;BME280;44704;50.122;19.932;2022-07-06T08:16:46;98600.06;;;20.89;66.62
58919;BME280;44704;50.122;19.932;2022-07-06T08:19:13;98603.71;;;20.99;66.33
58919;BME280;44704;50.122;19.932;2022-07-06T08:21:41;98607.23;;;21.04;65.66
58919;BME280;44704;50.122;19.932;2022-07-06T08:24:08;98601.25;;;20.96;65.16
58919;BME280;44704;50.122;19.932;2022-07-06T08:26:34;98605.14;;;20.95;65.86
58919;BME280;44704;50.122;19.932;2022-07-06T08:29:01;98604.85;;;21.11;66.83
58919;BME280;44704;50.122;19.932;2022-07-06T08:31:27;98600.88;;;21.28;66.47
58919;BME280;44704;50.122;19.932;2022-07-06T08:33:54;98598.49;;;21.37;65.32
58919;BME280;44704;50.122;19.932;2022-07-06T08:36:21;98599.50;;;21.38;64.46
58919;BME280;44704;50.122;19.932;2022-07-06T08:38:49;98605.06;;;21.29;64.81
58919;BME280;44704;50.122;19.932;2022-07-06T08:41:16;98611.09;;;21.22;64.60
58919;BME280;44704;50.122;19.932;2022-07-06T08:43:43;98610.95;;;21.16;65.15
58919;BME280;44704;50.122;19.932;2022-07-06T08:46:12;98606.44;;;21.10;65.06
58919;BME280;44704;50.122;19.932;2022-07-06T08:48:41;98612.60;;;21.01;65.22
58919;BME280;44704;50.122;19.932;2022-07-06T08:51:07;98611.73;;;20.91;65.70
58919;BME280;44704;50.122;19.932;2022-07-06T08:53:34;98625.26;;;20.70;66.08
58919;BME280;44704;50.122;19.932;2022-07-06T08:56:01;98635.73;;;20.27;67.82
58919;BME280;44704;50.122;19.932;2022-07-06T08:58:27;98642.60;;;19.78;70.21
58919;BME280;44704;50.122;19.932;2022-07-06T09:00:55;98650.44;;;19.41;72.38
58919;BME280;44704;50.122;19.932;2022-07-06T09:03:21;98651.71;;;19.12;73.46
58919;BME280;44704;50.122;19.932;2022-07-06T09:05:48;98654.58;;;18.92;74.39
58919;BME280;44704;50.122;19.932;2022-07-06T09:08:17;98660.54;;;18.76;76.33
58919;BME280;44704;50.122;19.932;2022-07-06T09:10:44;98669.26;;;18.51;76.40
58919;BME280;44704;50.122;19.932;2022-07-06T09:13:10;98669.52;;;18.35;77.71
58919;BME280;44704;50.122;19.932;2022-07-06T09:15:37;98667.86;;;18.31;78.58
58919;BME280;44704;50.122;19.932;2022-07-06T09:18:07;98669.66;;;18.33;78.57
58919;BME280;44704;50.122;19.932;2022-07-06T09:20:34;98665.84;;;18.44;79.17
58919;BME280;44704;50.122;19.932;2022-07-06T09:23:04;98659.71;;;18.65;80.14
58919;BME280;44704;50.122;19.932;2022-07-06T09:25:32;98657.39;;;18.88;79.15
58919;BME280;44704;50.122;19.932;2022-07-06T09:28:00;98654.52;;;19.17;78.42
58919;BME280;44704;50.122;19.932;2022-07-06T09:30:28;98647.01;;;19.53;78.13
58919;BME280;44704;50.122;19.932;2022-07-06T09:32:57;98643.94;;;19.85;76.59
58919;BME280;44704;50.122;19.932;2022-07-06T09:35:29;98640.42;;;20.13;77.17
58919;BME280;44704;50.122;19.932;2022-07-06T09:38:22;98638.10;;;20.48;75.60
58919;BME280;44704;50.122;19.932;2022-07-06T09:40:52;98631.27;;;20.77;73.64
58919;BME280;44704;50.122;19.932;2022-07-06T09:43:23;98626.20;;;20.92;71.73
58919;BME280;44704;50.122;19.932;2022-07-06T09:45:55;98625.34;;;21.03;69.88
58919;BME280;44704;50.122;19.932;2022-07-06T09:48:36;98629.02;;;20.95;68.63
58919;BME280;44704;50.122;19.932;2022-07-06T09:51:02;98618.83;;;20.87;68.46
58919;BME280;44704;50.122;19.932;2022-07-06T09:53:35;98614.52;;;21.00;68.06
58919;BME280;44704;50.122;19.932;2022-07-06T09:56:03;98611.11;;;21.21;67.73
58919;BME280;44704;50.122;19.932;2022-07-06T09:58:30;98606.14;;;21.43;67.71
58919;BME280;44704;50.122;19.932;2022-07-06T10:00:57;98610.02;;;21.71;67.09
58919;BME280;44704;50.122;19.932;2022-07-06T10:03:24;98613.05;;;21.96;65.12
58919;BME280;44704;50.122;19.932;2022-07-06T10:05:50;98613.92;;;22.16;63.64
58919;BME280;44704;50.122;19.932;2022-07-06T10:08:17;98619.57;;;22.23;62.97
58919;BME280;44704;50.122;19.932;2022-07-06T10:10:44;98623.10;;;22.11;63.70
58919;BME280;44704;50.122;19.932;2022-07-06T10:13:26;98619.64;;;21.86;62.19
58919;BME280;44704;50.122;19.932;2022-07-06T10:15:53;98619.60;;;21.61;61.53
58919;BME280;44704;50.122;19.932;2022-07-06T10:18:20;98615.56;;;21.35;61.87
58919;BME280;44704;50.122;19.932;2022-07-06T10:20:47;98615.07;;;21.13;62.71
58919;BME280;44704;50.122;19.932;2022-07-06T10:23:13;98623.20;;;21.02;64.08
58919;BME280;44704;50.122;19.932;2022-07-06T10:25:41;98621.73;;;21.04;64.37
58919;BME280;44704;50.122;19.932;2022-07-06T10:28:08;98615.16;;;21.06;63.82
58919;BME280;44704;50.122;19.932;2022-07-06T10:30:41;98619.38;;;21.15;64.57
58919;BME280;44704;50.122;19.932;2022-07-06T10:33:10;98618.20;;;21.38;64.26
58919;BME280;44704;50.122;19.932;2022-07-06T10:35:40;98616.77;;;21.60;63.31
58919;BME280;44704;50.122;19.932;2022-07-06T10:38:08;98614.98;;;21.80;63.89
58919;BME280;44704;50.122;19.932;2022-07-06T10:40:37;98617.07;;;21.87;62.04
58919;BME280;44704;50.122;19.932;2022-07-06T10:43:18;98614.46;;;21.82;61.16
58919;BME280;44704;50.122;19.932;2022-07-06T10:50:39;98609.77;;;22.08;61.29
58919;BME280;44704;50.122;19.932;2022-07-06T10:53:30;98608.00;;;22.20;59.88
58919;BME280;44704;50.122;19.932;2022-07-06T10:56:01;98601.84;;;22.48;60.77
58919;BME280;44704;50.122;19.932;2022-07-06T10:58:48;98601.86;;;22.74;58.95
58919;BME280;44704;50.122;19.932;2022-07-06T11:01:18;98606.94;;;23.02;59.52
58919;BME280;44704;50.122;19.932;2022-07-06T11:03:49;98606.09;;;23.38;58.79
58919;BME280;44704;50.122;19.932;2022-07-06T11:06:23;98606.11;;;23.65;56.93
58919;BME280;44704;50.122;19.932;2022-07-06T11:19:20;98601.25;;;25.03;52.54
58919;BME280;44704;50.122;19.932;2022-07-06T11:21:50;98599.20;;;24.94;52.33
58919;BME280;44704;50.122;19.932;2022-07-06T11:24:29;98599.56;;;24.83;52.73
58919;BME280;44704;50.122;19.932;2022-07-06T11:26:56;98606.23;;;24.67;52.33
58919;BME280;44704;50.122;19.932;2022-07-06T11:29:24;98607.11;;;24.44;52.10
58919;BME280;44704;50.122;19.932;2022-07-06T11:31:53;98610.43;;;24.34;52.13
58919;BME280;44704;50.122;19.932;2022-07-06T11:34:23;98616.77;;;24.30;52.98
58919;BME280;44704;50.122;19.932;2022-07-06T11:37:07;98617.13;;;24.25;52.79
58919;BME280;44704;50.122;19.932;2022-07-06T11:39:36;98620.57;;;24.11;52.64
58919;BME280;44704;50.122;19.932;2022-07-06T11:42:07;98620.14;;;23.94;52.17
58919;BME280;44704;50.122;19.932;2022-07-06T11:44:35;98615.08;;;23.75;52.21
58919;BME280;44704;50.122;19.932;2022-07-06T11:47:02;98611.77;;;23.55;52.35
58919;BME280;44704;50.122;19.932;2022-07-06T11:49:33;98611.48;;;23.34;51.91
58919;BME280;44704;50.122;19.932;2022-07-06T11:52:07;98608.40;;;23.10;51.07
58919;BME280;44704;50.122;19.932;2022-07-06T11:54:34;98614.80;;;22.86;51.92
58919;BME280;44704;50.122;19.932;2022-07-06T11:57:01;98615.88;;;22.68;53.49
58919;BME280;44704;50.122;19.932;2022-07-06T11:59:34;98614.61;;;22.66;54.58
58919;BME280;44704;50.122;19.932;2022-07-06T12:02:09;98615.59;;;22.76;54.97
58919;BME280;44704;50.122;19.932;2022-07-06T12:04:39;98611.15;;;22.91;55.03
58919;BME280;44704;50.122;19.932;2022-07-06T12:07:07;98607.15;;;23.01;53.99
58919;BME280;44704;50.122;19.932;2022-07-06T12:09:36;98604.80;;;23.24;54.93
58919;BME280;44704;50.122;19.932;2022-07-06T12:12:03;98605.14;;;23.70;54.15
58919;BME280;44704;50.122;19.932;2022-07-06T12:14:31;98602.02;;;24.05;52.97
58919;BME280;44704;50.122;19.932;2022-07-06T12:17:05;98598.88;;;24.33;52.18
58919;BME280;44704;50.122;19.932;2022-07-06T12:19:32;98596.68;;;24.48;51.04
58919;BME280;44704;50.122;19.932;2022-07-06T12:21:59;98597.20;;;24.45;50.32
58919;BME280;44704;50.122;19.932;2022-07-06T12:24:30;98600.45;;;24.41;49.06
58919;BME280;44704;50.122;19.932;2022-07-06T12:27:09;98600.70;;;24.24;48.30
58919;BME280;44704;50.122;19.932;2022-07-06T12:29:36;98598.06;;;24.22;48.82
58919;BME280;44704;50.122;19.932;2022-07-06T12:32:03;98596.41;;;24.13;49.30
58919;BME280;44704;50.122;19.932;2022-07-06T12:34:31;98591.97;;;24.10;50.19
58919;BME280;44704;50.122;19.932;2022-07-06T12:37:06;98591.29;;;24.07;49.71
58919;BME280;44704;50.122;19.932;2022-07-06T12:39:44;98590.71;;;24.01;50.35
58919;BME280;44704;50.122;19.932;2022-07-06T12:42:14;98591.45;;;24.03;50.35
58919;BME280;44704;50.122;19.932;2022-07-06T12:44:49;98593.55;;;24.02;50.15
58919;BME280;44704;50.122;19.932;2022-07-06T12:47:21;98590.18;;;24.01;51.19
58919;BME280;44704;50.122;19.932;2022-07-06T12:50:04;98592.61;;;24.21;50.50
58919;BME280;44704;50.122;19.932;2022-07-06T12:52:32;98598.20;;;24.29;49.68
58919;BME280;44704;50.122;19.932;2022-07-06T12:55:06;98608.36;;;24.14;49.48
58919;BME280;44704;50.122;19.932;2022-07-06T12:57:47;98609.91;;;24.07;49.10
58919;BME280;44704;50.122;19.932;2022-07-06T13:00:15;98610.58;;;24.17;48.68
58919;BME280;44704;50.122;19.932;2022-07-06T13:02:45;98616.80;;;24.14;46.83
58919;BME280;44704;50.122;19.932;2022-07-06T13:05:14;98616.91;;;24.13;47.08
58919;BME280;44704;50.122;19.932;2022-07-06T13:07:46;98618.44;;;24.15;47.45
58919;BME280;44704;50.122;19.932;2022-07-06T13:10:14;98616.52;;;24.08;47.09
58919;BME280;44704;50.122;19.932;2022-07-06T13:12:41;98622.14;;;23.96;47.29